createdAt,value
2023-05-11T00:01:53.153Z,33.55
2023-05-11T00:04:26.659Z,33.31
2023-05-11T00:07:00.647Z,33.43
2023-05-11T00:09:35.571Z,33.57
2023-05-11T00:12:10.028Z,33.69
2023-05-11T00:14:47.164Z,33.83
2023-05-11T00:17:23.883Z,33.94
2023-05-11T00:19:59.750Z,33.92
2023-05-11T00:22:39.866Z,34.04
2023-05-11T00:25:20.979Z,34.33
2023-05-11T00:27:57.909Z,34.34
2023-05-11T00:30:31.789Z,34.42
2023-05-11T00:33:07.354Z,34.52
2023-05-11T00:35:41.342Z,34.80
2023-05-11T00:38:17.714Z,34.65
2023-05-11T00:40:55.545Z,34.72
2023-05-11T00:43:36.143Z,34.76
2023-05-11T00:46:13.550Z,34.76
2023-05-11T00:48:50.609Z,34.79
2023-05-11T00:51:25.274Z,34.88
2023-05-11T00:53:59.632Z,34.82
2023-05-11T00:56:34.312Z,35.15
2023-05-11T00:59:11.546Z,35.35
2023-05-11T01:01:52.363Z,35.18
2023-05-11T01:04:38.708Z,35.13
2023-05-11T01:07:20.052Z,35.04
2023-05-11T01:13:44.662Z,35.50
2023-05-11T01:16:39.356Z,35.00
2023-05-11T01:20:30.515Z,35.13
2023-05-11T01:23:47.572Z,35.21
2023-05-11T01:30:37.029Z,33.07
2023-05-11T01:33:37.426Z,35.12
2023-05-11T01:36:32.401Z,35.26
2023-05-11T01:40:00.812Z,35.31
2023-05-11T01:42:44.815Z,35.34
2023-05-11T01:45:26.734Z,35.16
2023-05-11T01:48:06.688Z,35.28
2023-05-11T01:50:45.208Z,35.38
2023-05-11T01:53:26.623Z,35.67
2023-05-11T01:56:09.247Z,35.88
2023-05-11T02:01:39.272Z,35.28
2023-05-11T02:04:22.047Z,36.05
2023-05-11T02:07:08.965Z,36.16
2023-05-11T02:09:41.040Z,36.42
2023-05-11T02:12:22.045Z,36.49
2023-05-11T02:15:17.088Z,36.54
2023-05-11T02:17:54.387Z,36.63
2023-05-11T02:20:34.715Z,36.35
2023-05-11T02:23:28.254Z,36.19
2023-05-11T02:26:03.312Z,36.08
2023-05-11T02:28:44.065Z,36.00
2023-05-11T02:31:30.843Z,36.15
2023-05-11T02:34:24.900Z,35.95
2023-05-11T02:37:21.056Z,35.90
2023-05-11T02:40:40.958Z,35.75
2023-05-11T02:43:37.832Z,35.53
2023-05-11T02:46:18.215Z,35.15
2023-05-11T02:49:03.980Z,35.26
2023-05-11T02:51:50.034Z,35.29
2023-05-11T02:54:33.393Z,35.34
2023-05-11T02:57:14.046Z,35.74
2023-05-11T03:01:16.273Z,35.82
2023-05-11T03:03:50.168Z,36.37
2023-05-11T03:06:23.832Z,35.99
2023-05-11T03:08:57.529Z,36.65
2023-05-11T03:11:32.295Z,37.23
2023-05-11T03:14:06.864Z,37.21
2023-05-11T03:16:41.576Z,37.61
2023-05-11T03:19:16.318Z,37.75
2023-05-11T03:21:51.132Z,37.79
2023-05-11T03:24:25.178Z,37.92
2023-05-11T03:27:00.716Z,37.95
2023-05-11T03:29:37.340Z,38.02
2023-05-11T03:32:12.246Z,37.95
2023-05-11T03:34:46.123Z,37.88
2023-05-11T03:37:21.780Z,38.27
2023-05-11T03:39:58.286Z,38.17
2023-05-11T03:42:32.444Z,38.29
2023-05-11T03:45:09.673Z,37.96
2023-05-11T03:47:44.695Z,37.83
2023-05-11T03:50:19.103Z,37.32
2023-05-11T03:52:53.789Z,37.17
2023-05-11T03:55:27.899Z,36.88
2023-05-11T03:58:03.613Z,36.53
2023-05-11T04:00:37.612Z,36.41
2023-05-11T04:03:12.646Z,36.42
2023-05-11T04:05:46.290Z,36.30
2023-05-11T04:08:19.805Z,36.39
2023-05-11T04:10:53.154Z,36.18
2023-05-11T04:13:27.437Z,36.11
2023-05-11T04:16:01.188Z,36.23
2023-05-11T04:18:36.686Z,36.29
2023-05-11T04:21:11.516Z,35.98
2023-05-11T04:23:44.719Z,35.77
2023-05-11T04:26:18.061Z,35.56
2023-05-11T04:28:51.264Z,35.30
2023-05-11T04:31:30.046Z,35.17
2023-05-11T04:34:03.770Z,34.99
2023-05-11T04:36:42.225Z,34.91
2023-05-11T04:39:14.690Z,34.86
2023-05-11T04:41:48.489Z,33.14
2023-05-11T04:44:21.942Z,34.16
2023-05-11T04:47:00.892Z,34.34
2023-05-11T04:49:34.178Z,34.23
2023-05-11T04:54:47.866Z,34.14
2023-05-11T04:57:22.256Z,34.20
2023-05-11T05:00:06.046Z,33.76
2023-05-11T05:02:45.542Z,33.35
2023-05-11T05:08:18.831Z,32.83
2023-05-11T05:10:52.690Z,32.56
2023-05-11T05:13:34.468Z,32.27
2023-05-11T05:16:08.213Z,32.03
2023-05-11T05:18:41.730Z,31.82
2023-05-11T05:21:16.754Z,31.53
2023-05-11T05:23:51.325Z,31.17
2023-05-11T05:26:24.736Z,30.92
2023-05-11T05:28:58.626Z,30.73
2023-05-11T05:31:36.288Z,30.49
2023-05-11T05:34:10.063Z,30.25
2023-05-11T05:36:44.268Z,30.05
2023-05-11T05:39:17.508Z,29.92
2023-05-11T05:41:51.530Z,29.87
2023-05-11T05:44:25.949Z,29.93
2023-05-11T05:47:00.343Z,29.85
2023-05-11T05:49:36.397Z,29.79
2023-05-11T05:52:12.669Z,29.51
2023-05-11T05:54:46.738Z,29.33
2023-05-11T05:57:20.075Z,29.17
2023-05-11T05:59:54.146Z,29.19
2023-05-11T06:02:28.208Z,29.09
2023-05-11T06:05:01.719Z,28.70
2023-05-11T06:07:36.953Z,28.62
2023-05-11T06:10:11.364Z,28.39
2023-05-11T06:12:44.713Z,28.11
2023-05-11T06:15:18.358Z,27.90
2023-05-11T06:17:55.594Z,27.66
2023-05-11T06:20:28.894Z,27.28
2023-05-11T06:23:05.213Z,27.13
2023-05-11T06:25:39.747Z,26.72
2023-05-11T06:28:15.076Z,26.35
2023-05-11T06:30:52.143Z,26.23
2023-05-11T06:33:26.317Z,26.38
2023-05-11T06:36:00.252Z,26.44
2023-05-11T06:38:34.537Z,26.59
2023-05-11T06:41:10.087Z,26.53
2023-05-11T06:43:43.476Z,26.37
2023-05-11T06:46:27.785Z,26.31
2023-05-11T06:49:01.511Z,26.31
2023-05-11T06:51:35.641Z,26.07
2023-05-11T06:54:09.428Z,25.43
2023-05-11T06:56:43.139Z,24.77
2023-05-11T06:59:17.575Z,22.96
2023-05-11T07:01:51.071Z,21.90
2023-05-11T07:04:24.686Z,21.40
2023-05-11T07:06:58.263Z,21.83
2023-05-11T07:09:31.697Z,22.32
2023-05-11T07:12:05.072Z,22.88
2023-05-11T07:14:57.413Z,23.04
2023-05-11T07:17:34.480Z,23.48
2023-05-11T07:20:10.317Z,22.98
2023-05-11T07:22:48.550Z,21.78
2023-05-11T07:25:22.105Z,20.58
2023-05-11T07:27:56.238Z,20.14
2023-05-11T07:30:33.291Z,19.10
2023-05-11T07:33:08.317Z,18.52
2023-05-11T07:35:41.724Z,18.14
2023-05-11T07:38:15.231Z,17.39
2023-05-11T07:40:48.640Z,17.58
2023-05-11T07:43:22.259Z,17.53
2023-05-11T07:45:56.000Z,18.09
2023-05-11T07:48:29.361Z,18.40
2023-05-11T07:51:03.334Z,18.08
2023-05-11T07:53:39.101Z,18.11
2023-05-11T07:56:12.455Z,19.34
2023-05-11T07:58:46.435Z,20.31
2023-05-11T08:01:19.839Z,20.03
2023-05-11T08:03:53.334Z,20.51
2023-05-11T08:06:26.757Z,20.96
2023-05-11T08:08:59.992Z,20.30
2023-05-11T08:11:33.455Z,20.58
2023-05-11T08:14:06.905Z,21.25
2023-05-11T08:16:40.733Z,22.09
2023-05-11T08:19:14.198Z,22.78
2023-05-11T08:21:47.469Z,23.23
2023-05-11T08:24:20.797Z,23.09
2023-05-11T08:26:54.105Z,19.92
2023-05-11T08:29:30.094Z,17.07
2023-05-11T08:32:03.688Z,14.58
2023-05-11T08:34:37.417Z,12.36
2023-05-11T08:37:13.107Z,11.70
2023-05-11T08:39:47.738Z,10.83
2023-05-11T08:42:21.974Z,10.73
2023-05-11T08:44:59.538Z,11.77
2023-05-11T08:47:35.056Z,13.00
2023-05-11T08:50:09.775Z,14.79
2023-05-11T08:52:45.272Z,16.07
2023-05-11T08:55:19.236Z,17.46
2023-05-11T08:57:54.685Z,17.83
2023-05-11T09:00:29.388Z,17.99
2023-05-11T09:03:03.788Z,18.02
2023-05-11T09:05:38.883Z,17.93
2023-05-11T09:08:14.637Z,18.41
2023-05-11T09:10:48.070Z,18.89
2023-05-11T09:13:21.586Z,19.49
2023-05-11T09:15:55.177Z,20.13
2023-05-11T09:18:29.247Z,20.65
2023-05-11T09:21:03.638Z,20.90
2023-05-11T09:23:36.976Z,20.13
2023-05-11T09:26:17.183Z,18.25
2023-05-11T09:29:03.018Z,17.21
2023-05-11T09:31:40.951Z,16.92
2023-05-11T09:34:19.739Z,15.90
2023-05-11T09:36:54.224Z,14.50
2023-05-11T09:39:42.045Z,12.75
2023-05-11T09:42:17.554Z,13.38
2023-05-11T09:44:51.005Z,14.14
2023-05-11T09:47:24.469Z,16.12
2023-05-11T09:49:57.671Z,17.37
2023-05-11T09:52:31.840Z,17.59
2023-05-11T09:55:08.709Z,18.25
2023-05-11T09:57:42.151Z,18.94
2023-05-11T10:00:18.908Z,18.83
2023-05-11T10:03:03.805Z,17.70
2023-05-11T10:05:39.013Z,15.88
2023-05-11T10:08:12.487Z,14.78
2023-05-11T10:10:46.546Z,13.73
2023-05-11T10:13:20.046Z,13.59
2023-05-11T10:15:55.914Z,13.50
2023-05-11T10:18:29.716Z,14.06
2023-05-11T10:21:03.686Z,15.11
2023-05-11T10:23:37.354Z,14.25
2023-05-11T10:26:12.612Z,13.13
2023-05-11T10:28:45.855Z,11.85
2023-05-11T10:31:21.222Z,11.54
2023-05-11T10:33:55.168Z,11.55
2023-05-11T10:36:29.342Z,11.13
2023-05-11T10:39:09.179Z,10.32
2023-05-11T10:41:54.589Z,10.15
2023-05-11T10:44:54.933Z,11.23
2023-05-11T10:47:51.610Z,13.12
2023-05-11T10:50:36.786Z,14.36
2023-05-11T10:53:19.858Z,15.51
2023-05-11T10:56:17.456Z,16.34
2023-05-11T10:59:16.530Z,16.92
2023-05-11T11:01:54.968Z,18.72
2023-05-11T11:04:44.119Z,21.73
2023-05-11T11:07:18.771Z,21.74
2023-05-11T11:10:00.519Z,22.35
2023-05-11T11:12:35.746Z,21.96
2023-05-11T11:15:13.780Z,21.33
2023-05-11T11:17:47.540Z,21.86
2023-05-11T11:20:45.093Z,21.45
2023-05-11T11:23:45.798Z,20.31
2023-05-11T11:26:21.886Z,20.08
2023-05-11T11:29:13.068Z,20.01
2023-05-11T11:31:46.336Z,20.68
2023-05-11T11:34:40.106Z,21.64
2023-05-11T11:37:13.724Z,22.50
2023-05-11T11:40:14.009Z,23.25
2023-05-11T11:42:42.144Z,23.73
2023-05-11T11:45:33.014Z,24.82
2023-05-11T11:48:14.026Z,25.29
2023-05-11T11:50:49.190Z,26.04
2023-05-11T11:54:15.190Z,26.52
2023-05-11T11:56:48.704Z,27.09
2023-05-11T11:59:24.940Z,26.59
2023-05-11T12:02:00.684Z,26.38
2023-05-11T12:05:07.944Z,26.59
2023-05-11T12:07:44.970Z,27.67
2023-05-11T12:10:19.383Z,29.20
2023-05-11T12:12:59.927Z,29.44
2023-05-11T12:15:33.279Z,29.70
2023-05-11T12:18:07.129Z,29.68
2023-05-11T12:20:40.657Z,29.91
2023-05-11T12:23:15.018Z,29.82
2023-05-11T12:25:49.752Z,29.65
2023-05-11T12:28:23.305Z,29.84
2023-05-11T12:31:00.602Z,29.47
2023-05-11T12:33:33.871Z,29.66
2023-05-11T12:36:11.452Z,29.25
2023-05-11T12:38:47.940Z,28.59
2023-05-11T12:41:23.379Z,26.36
2023-05-11T12:43:57.147Z,24.14
2023-05-11T12:46:30.509Z,22.26
2023-05-11T12:49:09.610Z,21.84
2023-05-11T12:51:50.601Z,22.51
2023-05-11T12:54:30.932Z,23.45
2023-05-11T12:57:08.464Z,23.72
2023-05-11T12:59:40.761Z,24.50
2023-05-11T13:02:19.641Z,22.66
2023-05-11T13:04:52.718Z,22.16
2023-05-11T13:07:31.418Z,22.10
2023-05-11T13:10:04.634Z,21.72
2023-05-11T13:12:38.244Z,21.67
2023-05-11T13:15:13.726Z,20.81
2023-05-11T13:17:47.591Z,20.38
2023-05-11T13:20:26.849Z,20.72
2023-05-11T13:23:10.591Z,21.34
2023-05-11T13:25:55.099Z,21.39
2023-05-11T13:28:28.676Z,20.96
2023-05-11T13:31:04.959Z,20.73
2023-05-11T13:33:40.585Z,21.55
2023-05-11T13:36:15.236Z,22.49
2023-05-11T13:38:51.643Z,23.10
2023-05-11T13:41:24.765Z,23.52
2023-05-11T13:43:59.075Z,23.42
2023-05-11T13:46:32.349Z,23.36
2023-05-11T13:49:11.816Z,23.22
2023-05-11T13:51:45.163Z,22.62
2023-05-11T13:54:18.485Z,22.74
2023-05-11T13:56:51.902Z,22.54
2023-05-11T13:59:25.304Z,23.01
2023-05-11T14:01:58.798Z,23.33
2023-05-11T14:04:32.549Z,23.73
2023-05-11T14:07:06.620Z,24.12
2023-05-11T14:09:43.303Z,23.74
2023-05-11T14:12:15.588Z,24.04
2023-05-11T14:14:48.779Z,25.26
2023-05-11T14:17:22.070Z,25.71
2023-05-11T14:19:55.508Z,25.50
2023-05-11T14:22:33.783Z,24.93
2023-05-11T14:25:13.236Z,24.08
2023-05-11T14:27:46.799Z,23.70
2023-05-11T14:30:20.270Z,23.27
2023-05-11T14:32:58.665Z,23.03
2023-05-11T14:35:31.902Z,23.34
2023-05-11T14:38:05.718Z,23.41
2023-05-11T14:40:38.979Z,23.17
2023-05-11T14:43:12.903Z,22.73
2023-05-11T14:45:46.312Z,22.37
2023-05-11T14:48:21.313Z,22.38
2023-05-11T14:50:55.053Z,22.27
2023-05-11T14:53:31.933Z,22.05
2023-05-11T14:56:15.223Z,21.76
2023-05-11T14:58:52.473Z,21.58
2023-05-11T15:01:28.145Z,21.39
2023-05-11T15:04:02.370Z,20.85
2023-05-11T15:06:39.367Z,20.88
2023-05-11T15:09:13.063Z,20.65
2023-05-11T15:11:49.217Z,20.59
2023-05-11T15:14:23.012Z,20.69
2023-05-11T15:17:00.582Z,20.46
2023-05-11T15:19:36.344Z,20.28
2023-05-11T15:22:10.663Z,20.59
2023-05-11T15:24:49.201Z,20.66
2023-05-11T15:30:33.475Z,21.06
2023-05-11T15:33:06.833Z,21.13
2023-05-11T15:35:41.804Z,21.08
2023-05-11T15:38:14.943Z,21.07
2023-05-11T15:40:49.252Z,20.84
2023-05-11T15:43:22.309Z,20.52
2023-05-11T15:45:55.844Z,20.11
2023-05-11T15:48:29.077Z,20.63
2023-05-11T15:51:03.280Z,20.59
2023-05-11T15:53:37.585Z,22.67
2023-05-11T15:56:11.541Z,23.59
2023-05-11T15:58:46.186Z,23.81
2023-05-11T16:01:19.596Z,24.34
2023-05-11T16:03:53.024Z,24.52
2023-05-11T16:06:27.743Z,24.53
2023-05-11T16:09:01.316Z,24.73
2023-05-11T16:11:34.590Z,24.75
2023-05-11T16:14:10.044Z,25.06
2023-05-11T16:16:43.541Z,25.24
2023-05-11T16:19:19.435Z,25.21
2023-05-11T16:21:52.963Z,24.96
2023-05-11T16:24:45.101Z,24.78
2023-05-11T16:27:18.530Z,24.90
2023-05-11T16:29:52.436Z,25.10
2023-05-11T16:32:27.190Z,25.14
2023-05-11T16:35:02.971Z,25.45
2023-05-11T16:37:36.723Z,26.02
2023-05-11T16:40:12.988Z,25.65
2023-05-11T16:42:50.435Z,25.41
2023-05-11T16:45:33.884Z,25.46
2023-05-11T16:48:09.262Z,25.18
2023-05-11T16:50:44.897Z,24.87
2023-05-11T16:53:19.913Z,24.87
2023-05-11T16:55:53.732Z,25.34
2023-05-11T16:58:30.228Z,25.41
2023-05-11T17:01:03.291Z,25.70
2023-05-11T17:03:36.717Z,25.80
2023-05-11T17:06:14.186Z,26.76
2023-05-11T17:08:49.268Z,26.87
2023-05-11T17:11:23.788Z,27.05
2023-05-11T17:13:57.127Z,27.10
2023-05-11T17:16:30.424Z,26.94
2023-05-11T17:19:04.102Z,27.00
2023-05-11T17:21:39.974Z,28.18
2023-05-11T17:24:13.442Z,29.02
2023-05-11T17:26:48.551Z,29.64
2023-05-11T17:29:26.528Z,29.27
2023-05-11T17:31:59.892Z,29.26
2023-05-11T17:34:34.039Z,29.47
2023-05-11T17:37:17.395Z,29.77
2023-05-11T17:39:49.281Z,30.24
2023-05-11T17:42:25.333Z,30.65
2023-05-11T17:44:58.751Z,31.20
2023-05-11T17:47:39.968Z,31.06
2023-05-11T17:50:13.982Z,31.21
2023-05-11T17:52:50.670Z,31.07
2023-05-11T17:55:23.310Z,31.04
2023-05-11T17:57:56.737Z,30.79
2023-05-11T18:00:30.557Z,31.21
2023-05-11T18:03:06.946Z,30.96
2023-05-11T18:05:48.722Z,30.73
2023-05-11T18:08:15.302Z,30.52
2023-05-11T18:10:51.903Z,30.67
2023-05-11T18:13:26.504Z,30.56
2023-05-11T18:18:53.059Z,29.85
2023-05-11T18:21:31.782Z,31.03
2023-05-11T18:28:16.465Z,30.95
2023-05-11T18:30:51.627Z,30.91
2023-05-11T18:33:26.780Z,31.22
2023-05-11T18:53:03.349Z,29.49
2023-05-11T18:55:51.882Z,30.96
2023-05-11T19:09:02.461Z,30.01
2023-05-11T19:12:26.728Z,31.72
2023-05-11T19:18:23.091Z,30.21
2023-05-11T19:20:57.561Z,32.05
2023-05-11T19:23:32.104Z,32.42
2023-05-11T19:26:06.151Z,33.05
2023-05-11T19:28:41.280Z,32.94
2023-05-11T19:31:17.451Z,32.61
2023-05-11T19:33:52.632Z,32.55
2023-05-11T19:36:29.521Z,32.79
2023-05-11T19:39:04.648Z,32.92
2023-05-11T19:41:41.837Z,32.87
2023-05-11T19:44:16.720Z,33.17
2023-05-11T19:47:02.420Z,33.50
2023-05-11T19:49:40.439Z,34.17
2023-05-11T19:52:19.998Z,34.34
2023-05-11T19:54:56.183Z,34.38
2023-05-11T19:57:33.285Z,34.45
2023-05-11T20:03:28.850Z,34.59
2023-05-11T20:06:46.932Z,34.26
2023-05-11T20:09:48.128Z,34.17
2023-05-11T20:12:41.152Z,34.06
2023-05-11T20:15:17.262Z,34.11
2023-05-11T20:17:54.084Z,34.03
2023-05-11T20:20:49.411Z,33.83
2023-05-11T20:23:26.071Z,34.21
2023-05-11T20:26:03.221Z,34.34
2023-05-11T20:28:37.215Z,34.33
2023-05-11T20:31:15.556Z,34.24
2023-05-11T20:36:34.364Z,34.41
2023-05-11T20:39:11.327Z,34.16
2023-05-11T20:41:54.942Z,34.25
2023-05-11T20:44:34.275Z,34.35
2023-05-11T20:47:16.458Z,34.45
2023-05-11T20:49:50.247Z,34.84
2023-05-11T20:52:25.905Z,35.65
2023-05-11T20:54:59.530Z,35.99
2023-05-11T20:57:48.103Z,36.33
2023-05-11T21:03:50.664Z,34.48
2023-05-11T21:06:25.236Z,36.70
2023-05-11T21:08:58.601Z,37.01
2023-05-11T21:11:32.137Z,37.26
2023-05-11T21:14:05.880Z,37.52
2023-05-11T21:16:39.361Z,37.52
2023-05-11T21:19:16.993Z,37.47
2023-05-11T21:21:50.595Z,37.43
2023-05-11T21:24:25.037Z,37.27
2023-05-11T21:27:03.295Z,37.57
2023-05-11T21:29:39.504Z,37.45
2023-05-11T21:32:13.232Z,37.18
2023-05-11T21:34:46.883Z,37.29
2023-05-11T21:37:21.439Z,37.27
2023-05-11T21:39:55.346Z,37.36
2023-05-11T21:42:31.081Z,37.44
2023-05-11T21:45:05.100Z,37.47
2023-05-11T21:47:38.313Z,37.48
2023-05-11T21:50:16.224Z,37.49
2023-05-11T21:52:49.214Z,37.51
2023-05-11T21:55:35.039Z,33.52
2023-05-11T21:58:18.914Z,36.73
2023-05-11T22:00:52.420Z,37.23
2023-05-11T22:03:27.807Z,37.45
2023-05-11T22:06:01.653Z,37.63
2023-05-11T22:08:39.309Z,37.84
2023-05-11T22:11:12.606Z,38.05
2023-05-11T22:13:46.431Z,38.04
2023-05-11T22:16:20.106Z,38.33
2023-05-11T22:18:53.730Z,38.54
2023-05-11T22:21:29.715Z,38.79
2023-05-11T22:24:04.416Z,38.82
2023-05-11T22:26:43.666Z,38.84
2023-05-11T22:29:22.928Z,38.76
2023-05-11T22:31:57.628Z,38.83
2023-05-11T22:34:31.230Z,38.86
2023-05-11T22:37:05.428Z,38.89
2023-05-11T22:39:40.196Z,38.98
2023-05-11T22:42:16.417Z,38.98
2023-05-11T22:44:49.980Z,38.94
2023-05-11T22:47:23.817Z,39.15
2023-05-11T22:50:01.890Z,39.24
2023-05-11T22:52:37.850Z,39.56
2023-05-11T22:55:12.569Z,39.45
2023-05-11T22:57:45.954Z,39.70
2023-05-11T23:00:21.512Z,39.73
2023-05-11T23:02:55.336Z,40.00
2023-05-11T23:05:28.906Z,39.92
2023-05-11T23:08:04.590Z,39.99
2023-05-11T23:10:38.402Z,40.14
2023-05-11T23:13:12.980Z,40.31
2023-05-11T23:15:46.878Z,40.21
2023-05-11T23:22:21.497Z,40.38
2023-05-11T23:24:56.538Z,40.39
2023-05-11T23:27:29.937Z,41.02
2023-05-11T23:30:05.195Z,41.16
2023-05-11T23:32:39.130Z,41.50
2023-05-11T23:35:13.089Z,41.69
2023-05-11T23:37:46.498Z,41.66
2023-05-11T23:40:19.979Z,41.62
2023-05-11T23:42:53.514Z,41.88
2023-05-11T23:45:37.520Z,41.61
2023-05-11T23:49:04.576Z,41.59
2023-05-11T23:55:21.320Z,41.75
2023-05-11T23:58:01.169Z,41.59
